Time;durP1;ratioP1;P1;durP2;ratioP2;P2;SDS_P1;SDS_P2;PMS_P1;PMS_P2;Temp;Humidity;BMP_temperature;BMP_pressure;BME280_temperature;BME280_humidity;BME280_pressure;Samples;Min_cycle;Max_cycle;Signal;HPM_P1;HPM_P2
2021/07/19 00:01:59;;;;;;;21.33;19.00;;;;;;;21.19;75.11;96175.88;5025103;28;20064;-68
2021/07/19 00:04:26;;;;;;;22.83;18.15;;;;;;;21.36;75.58;96222.31;5024828;28;20449;-66
2021/07/19 00:06:53;;;;;;;23.10;17.63;;;;;;;21.09;76.10;96182.72;5026395;28;20903;-67
2021/07/19 00:09:21;;;;;;;25.20;18.63;;;;;;;21.21;76.42;96218.47;5026137;28;20057;-67
2021/07/19 00:11:48;;;;;;;21.45;18.00;;;;;;;21.26;76.32;96220.69;5026268;28;20601;-67
2021/07/19 00:14:15;;;;;;;20.63;18.35;;;;;;;21.21;76.05;96218.47;5024779;28;20057;-66
2021/07/19 00:16:42;;;;;;;21.85;17.73;;;;;;;21.18;76.60;96224.25;5026544;28;20069;-66
2021/07/19 00:19:09;;;;;;;20.60;17.02;;;;;;;21.22;76.38;96265.13;5026479;28;20049;-67
2021/07/19 00:21:35;;;;;;;23.30;17.38;;;;;;;20.59;76.79;96121.03;5025057;28;20050;-66
2021/07/19 00:24:03;;;;;;;22.27;17.27;;;;;;;21.06;76.91;96208.19;5025016;28;20152;-66
2021/07/19 00:26:30;;;;;;;19.73;17.35;;;;;;;21.13;77.05;96222.81;5026173;28;20054;-65
2021/07/19 00:28:57;;;;;;;19.83;16.73;;;;;;;20.80;77.15;96170.91;5025846;28;20594;-66
2021/07/19 00:31:23;;;;;;;23.10;16.88;;;;;;;21.14;77.01;96227.19;5024489;28;20481;-65
2021/07/19 00:33:50;;;;;;;21.38;17.40;;;;;;;20.80;77.16;96156.84;5026074;28;20053;-66
2021/07/19 00:36:17;;;;;;;19.50;17.50;;;;;;;21.02;77.83;96217.56;5025935;28;20053;-66
2021/07/19 00:38:43;;;;;;;19.17;17.27;;;;;;;21.05;77.59;96209.44;5041369;28;20532;-65
2021/07/19 00:41:11;;;;;;;19.75;17.48;;;;;;;20.96;77.85;96201.69;5026571;28;20530;-65
2021/07/19 00:43:38;;;;;;;19.30;17.35;;;;;;;20.90;78.37;96200.69;5026209;28;20063;-65
2021/07/19 00:46:05;;;;;;;22.27;17.67;;;;;;;20.89;78.01;96182.25;5024812;28;20093;-65
2021/07/19 00:48:32;;;;;;;20.10;17.35;;;;;;;20.73;78.14;96159.91;5024761;28;20064;-65
2021/07/19 00:50:59;;;;;;;21.55;17.67;;;;;;;20.61;78.80;96150.28;5025751;28;20057;-67
2021/07/19 00:53:26;;;;;;;21.13;17.65;;;;;;;20.61;79.05;96157.97;5023457;28;20054;-65
2021/07/19 00:55:55;;;;;;;21.08;17.83;;;;;;;20.81;79.55;96189.38;5026338;28;20057;-66
2021/07/19 00:58:25;;;;;;;19.10;17.20;;;;;;;20.82;79.55;96185.31;5024229;28;20084;-66
2021/07/19 01:00:54;;;;;;;18.88;16.90;;;;;;;20.90;79.06;96181.78;5024546;28;20057;-65
2021/07/19 01:03:24;;;;;;;18.08;16.15;;;;;;;20.93;78.80;96185.69;5025276;28;20142;-66
2021/07/19 01:05:51;;;;;;;19.30;17.40;;;;;;;21.01;78.33;96181.41;5023962;28;20437;-66
2021/07/19 01:08:19;;;;;;;23.90;17.48;;;;;;;20.91;78.53;96188.19;5024429;28;20242;-66
2021/07/19 01:10:48;;;;;;;23.25;16.67;;;;;;;21.02;78.22;96183.00;5025256;28;20049;-66
2021/07/19 01:13:15;;;;;;;18.90;16.85;;;;;;;20.54;78.35;96124.44;5025770;28;20140;-66
2021/07/19 01:15:42;;;;;;;19.08;17.02;;;;;;;20.91;78.74;96179.75;5025652;28;20107;-65
2021/07/19 01:18:10;;;;;;;19.05;17.05;;;;;;;20.91;78.56;96182.56;5025466;28;20065;-64
2021/07/19 01:21:05;;;;;;;18.42;16.25;;;;;;;20.89;78.89;96185.06;5025323;28;20143;-66
2021/07/19 01:24:01;;;;;;;18.70;16.70;;;;;;;20.60;78.81;96131.03;5025252;28;20169;-65
2021/07/19 01:26:46;;;;;;;18.95;17.05;;;;;;;20.96;78.61;96182.00;5025323;28;20061;-65
2021/07/19 01:29:18;;;;;;;20.05;16.02;;;;;;;20.94;78.65;96187.28;5025193;28;20479;-66
2021/07/19 01:31:46;;;;;;;18.02;16.15;;;;;;;21.03;78.17;96178.91;5024247;28;20152;-65
2021/07/19 01:34:18;;;;;;;19.63;16.80;;;;;;;20.82;77.86;96141.06;5023782;28;20060;-66
2021/07/19 01:36:49;;;;;;;18.95;15.63;;;;;;;21.00;78.54;96174.22;5024968;28;20045;-65
2021/07/19 01:39:17;;;;;;;19.45;16.85;;;;;;;20.96;78.54;96184.81;5023345;28;20100;-66
2021/07/19 01:41:45;;;;;;;21.20;16.25;;;;;;;20.91;78.43;96166.44;5023810;28;20061;-64
2021/07/19 01:44:13;;;;;;;21.40;16.23;;;;;;;20.91;78.92;96193.84;5023513;28;20091;-64
2021/07/19 01:46:42;;;;;;;18.35;16.27;;;;;;;20.86;79.22;96180.34;5024888;28;20067;-65
2021/07/19 01:49:11;;;;;;;23.10;16.13;;;;;;;20.77;79.37;96166.22;5023620;28;20065;-65
2021/07/19 01:51:39;;;;;;;19.52;15.48;;;;;;;20.87;79.27;96182.69;5024245;28;20542;-65
2021/07/19 01:54:07;;;;;;;25.75;17.90;;;;;;;20.90;79.04;96184.59;5023050;28;20832;-65
2021/07/19 01:56:35;;;;;;;19.70;17.10;;;;;;;20.68;78.55;96152.06;5024699;28;20148;-66
2021/07/19 01:59:04;;;;;;;21.38;16.75;;;;;;;20.88;78.71;96183.50;5022689;28;20056;-65
2021/07/19 02:01:33;;;;;;;20.20;16.52;;;;;;;20.81;79.26;96190.16;5024352;28;20140;-65
2021/07/19 02:04:00;;;;;;;21.63;17.73;;;;;;;20.32;79.09;96109.56;5022853;28;20053;-66
2021/07/19 02:06:28;;;;;;;17.45;15.65;;;;;;;20.67;79.62;96181.44;5023377;28;20065;-65
2021/07/19 02:09:01;;;;;;;18.42;16.23;;;;;;;20.74;79.66;96189.63;5024280;28;20076;-65
2021/07/19 02:11:28;;;;;;;24.33;16.37;;;;;;;19.85;80.13;96055.41;5023027;28;20045;-66
2021/07/19 02:13:57;;;;;;;18.30;16.40;;;;;;;20.53;80.67;96179.16;5024772;28;20057;-66
2021/07/19 02:16:28;;;;;;;18.50;16.25;;;;;;;20.26;81.80;96174.06;5024425;28;20076;-65
2021/07/19 02:18:57;;;;;;;20.20;17.15;;;;;;;20.52;81.03;96200.06;5023040;28;20064;-67
2021/07/19 02:21:25;;;;;;;22.40;16.98;;;;;;;20.54;80.51;96191.97;5022830;28;20063;-66
2021/07/19 02:23:53;;;;;;;20.10;17.27;;;;;;;20.57;80.30;96202.31;5022941;28;20061;-65
2021/07/19 02:26:22;;;;;;;20.10;15.75;;;;;;;20.55;80.28;96205.56;5022600;28;20491;-66
2021/07/19 02:28:53;;;;;;;20.95;15.98;;;;;;;20.52;80.89;96205.69;5022551;28;20057;-66
2021/07/19 02:31:21;;;;;;;22.90;17.58;;;;;;;20.57;80.68;96193.88;5022587;28;20136;-67
2021/07/19 02:33:52;;;;;;;24.70;17.48;;;;;;;20.34;82.13;96191.47;5024011;28;20660;-65
2021/07/19 02:36:21;;;;;;;21.88;19.63;;;;;;;20.46;81.74;96196.28;5022458;28;20063;-66
2021/07/19 02:38:49;;;;;;;20.92;18.75;;;;;;;20.58;81.18;96198.25;5022612;28;20440;-66
2021/07/19 02:41:19;;;;;;;20.58;18.23;;;;;;;20.64;80.99;96207.69;5024242;28;20056;-65
2021/07/19 02:43:51;;;;;;;21.55;17.23;;;;;;;20.63;80.34;96200.47;5023633;28;20061;-66
2021/07/19 02:46:22;;;;;;;18.30;16.40;;;;;;;20.61;79.79;96186.09;5023518;28;20136;-66
2021/07/19 02:48:55;;;;;;;31.00;17.35;;;;;;;20.13;79.69;96119.84;5023711;28;20057;-65
2021/07/19 02:51:24;;;;;;;17.20;15.25;;;;;;;20.59;80.27;96216.72;5021741;28;20362;-66
2021/07/19 02:53:52;;;;;;;20.42;16.27;;;;;;;20.22;79.62;96142.44;5023492;28;20063;-66
2021/07/19 02:56:21;;;;;;;19.88;16.40;;;;;;;20.63;79.72;96214.53;5023408;28;20050;-66
2021/07/19 02:58:49;;;;;;;22.83;16.27;;;;;;;19.85;80.27;96103.19;5023552;28;20122;-66
2021/07/19 03:01:20;;;;;;;23.02;15.88;;;;;;;20.47;80.57;96209.88;5022401;28;20141;-65
2021/07/19 03:03:50;;;;;;;22.77;15.73;;;;;;;19.94;80.55;96140.59;5023412;28;20122;-66
2021/07/19 03:06:19;;;;;;;18.88;15.68;;;;;;;20.46;80.46;96211.13;5023062;28;20077;-65
2021/07/19 03:08:48;;;;;;;25.58;16.42;;;;;;;20.30;80.78;96199.25;5021612;28;20052;-66
2021/07/19 03:11:20;;;;;;;19.73;15.77;;;;;;;20.46;80.92;96213.16;5022170;28;20612;-65
2021/07/19 03:13:57;;;;;;;20.58;17.20;;;;;;;20.29;80.79;96192.06;5023341;28;20057;-65
2021/07/19 03:16:27;;;;;;;18.20;16.30;;;;;;;20.55;80.50;96216.06;5023638;28;20061;-65
2021/07/19 03:18:56;;;;;;;21.13;16.80;;;;;;;20.59;80.31;96211.09;5022391;28;20060;-66
2021/07/19 03:21:25;;;;;;;20.65;16.83;;;;;;;20.59;79.98;96216.72;5023016;28;20053;-66
2021/07/19 03:23:54;;;;;;;23.58;16.92;;;;;;;20.49;80.08;96203.78;5023252;28;20075;-66
2021/07/19 03:26:22;;;;;;;25.35;17.85;;;;;;;19.96;79.87;96123.28;5021649;28;20049;-65
2021/07/19 03:28:49;;;;;;;21.90;17.13;;;;;;;20.74;79.16;96223.41;5023135;28;20061;-66
2021/07/19 03:31:17;;;;;;;24.17;18.70;;;;;;;20.73;79.16;96230.28;5021693;28;20065;-66
2021/07/19 03:33:44;;;;;;;20.15;16.70;;;;;;;20.85;78.40;96229.44;5023164;28;20447;-66
2021/07/19 03:36:12;;;;;;;22.63;16.02;;;;;;;20.81;78.53;96229.59;5022216;28;20061;-65
2021/07/19 03:38:41;;;;;;;20.15;16.17;;;;;;;20.76;78.96;96237.81;5023149;28;20060;-67
2021/07/19 03:41:08;;;;;;;18.83;15.30;;;;;;;20.71;78.66;96230.75;5023184;28;20067;-66
2021/07/19 03:43:36;;;;;;;21.40;16.17;;;;;;;20.49;78.34;96190.53;5021611;28;20050;-66
2021/07/19 03:46:03;;;;;;;21.67;15.63;;;;;;;20.85;78.13;96247.13;5022887;28;20583;-66
2021/07/19 03:48:31;;;;;;;18.80;15.45;;;;;;;20.81;78.20;96249.28;5021412;28;20084;-67
2021/07/19 03:50:58;;;;;;;23.05;15.85;;;;;;;20.84;78.42;96244.75;5022995;28;20629;-67
2021/07/19 03:53:25;;;;;;;18.83;16.83;;;;;;;20.80;78.68;96249.75;5023535;28;20669;-66
2021/07/19 03:55:53;;;;;;;19.48;16.70;;;;;;;20.90;78.54;96254.19;5022837;28;20107;-66
2021/07/19 03:58:20;;;;;;;26.58;16.98;;;;;;;20.95;77.82;96245.16;5023348;28;20140;-66
2021/07/19 04:00:48;;;;;;;21.23;16.05;;;;;;;21.15;76.86;96247.69;5023003;28;20053;-65
2021/07/19 04:03:24;;;;;;;16.75;15.02;;;;;;;21.12;77.26;96255.00;5022648;28;20522;-65
2021/07/19 04:06:02;;;;;;;18.15;15.15;;;;;;;21.21;76.78;96252.28;5021297;28;20574;-67
2021/07/19 04:08:34;;;;;;;20.42;15.25;;;;;;;21.17;76.76;96248.78;5022950;28;20532;-65
2021/07/19 04:11:02;;;;;;;21.75;14.57;;;;;;;21.25;76.48;96244.47;5021159;28;20050;-66
2021/07/19 04:13:32;;;;;;;35.22;15.05;;;;;;;21.16;76.19;96221.88;5022601;28;20476;-64
2021/07/19 04:15:59;;;;;;;22.48;14.35;;;;;;;21.15;76.14;96227.97;5022936;28;20068;-65
2021/07/19 04:18:26;;;;;;;21.80;14.73;;;;;;;21.38;76.08;96233.91;5021127;28;20583;-65
2021/07/19 04:20:55;;;;;;;23.55;14.98;;;;;;;21.25;75.54;96204.25;5020982;28;20080;-65
2021/07/19 04:23:23;;;;;;;22.65;15.55;;;;;;;21.79;74.82;96258.91;5037756;28;20089;-65
2021/07/19 04:25:50;;;;;;;17.73;13.90;;;;;;;21.98;73.69;96249.28;5022481;28;20057;-65
2021/07/19 04:28:21;;;;;;;21.30;13.98;;;;;;;22.06;73.48;96244.94;5023045;28;20057;-65
2021/07/19 04:30:50;;;;;;;15.10;12.95;;;;;;;21.87;72.76;96203.81;5026417;28;20057;-64
2021/07/19 04:33:24;;;;;;;21.83;13.93;;;;;;;22.05;72.13;96198.22;5024944;28;20060;-64
2021/07/19 04:35:54;;;;;;;15.70;14.02;;;;;;;22.34;72.16;96240.94;5026420;28;20053;-66
2021/07/19 04:38:23;;;;;;;18.20;13.25;;;;;;;22.38;72.47;96244.38;5024642;28;20063;-65
2021/07/19 04:40:58;;;;;;;18.75;13.48;;;;;;;;;;5025593;28;20128;-66
2021/07/19 04:43:26;;;;;;;21.77;13.43;;;;;;;22.45;71.25;96210.22;5026132;28;20076;-66
2021/07/19 04:45:54;;;;;;;17.80;14.10;;;;;;;22.56;70.50;96209.78;5025679;28;20077;-66
2021/07/19 04:48:21;;;;;;;20.85;16.10;;;;;;;23.02;70.66;96267.06;5024158;28;20061;-65
2021/07/19 04:50:49;;;;;;;23.63;18.35;;;;;;;23.14;70.18;96266.13;5025388;28;20061;-65
2021/07/19 04:53:17;;;;;;;25.52;19.63;;;;;;;23.02;69.58;96225.47;5024279;28;20053;-67
2021/07/19 04:55:48;;;;;;;33.15;23.35;;;;;;;23.24;69.39;96259.19;5025536;28;20061;-66
2021/07/19 04:58:18;;;;;;;24.92;20.13;;;;;;;23.41;68.78;96246.34;5025197;28;20053;-65
2021/07/19 05:00:48;;;;;;;25.35;19.17;;;;;;;23.39;67.46;96243.22;5025382;28;20107;-65
2021/07/19 05:03:22;;;;;;;23.27;18.70;;;;;;;23.72;67.26;96261.03;5024132;28;20084;-65
2021/07/19 05:05:50;;;;;;;21.67;18.08;;;;;;;23.95;66.17;96254.66;5025887;28;20439;-66
2021/07/19 05:08:21;;;;;;;23.05;16.75;;;;;;;24.06;65.13;96269.13;5024520;28;20054;-65
2021/07/19 05:10:50;;;;;;;19.25;15.63;;;;;;;23.65;64.61;96171.66;5024409;28;20057;-65
2021/07/19 05:13:18;;;;;;;26.52;15.88;;;;;;;24.27;63.90;96262.44;5023968;28;20310;-65
2021/07/19 05:15:45;;;;;;;24.45;15.55;;;;;;;24.31;63.85;96263.03;5023939;28;20586;-66
2021/07/19 05:18:17;;;;;;;27.40;16.20;;;;;;;24.00;64.12;96197.47;5023655;28;20555;-66
2021/07/19 05:20:44;;;;;;;16.48;14.55;;;;;;;24.44;63.50;96272.09;5040124;28;20053;-65
2021/07/19 05:23:11;;;;;;;18.90;14.48;;;;;;;24.32;63.51;96258.94;5025306;28;20056;-66
2021/07/19 05:25:38;;;;;;;22.60;15.77;;;;;;;24.51;63.68;96271.75;5023903;28;20063;-67
2021/07/19 05:28:11;;;;;;;21.77;13.90;;;;;;;24.71;63.00;96263.47;5023650;28;20511;-67
2021/07/19 05:30:52;;;;;;;17.23;12.93;;;;;;;24.96;61.80;96270.69;5024970;28;20049;-67
2021/07/19 05:33:22;;;;;;;18.50;14.05;;;;;;;25.16;61.48;96263.13;5023666;28;20064;-67
2021/07/19 05:35:49;;;;;;;26.25;14.55;;;;;;;24.98;61.54;96237.75;5023383;28;20086;-64
2021/07/19 05:38:17;;;;;;;21.20;16.00;;;;;;;24.92;62.44;96244.59;5019984;28;20059;-59
2021/07/19 05:40:44;;;;;;;15.35;13.43;;;;;;;25.03;61.48;96234.25;5024161;28;20057;-67
2021/07/19 05:43:11;;;;;;;20.17;14.40;;;;;;;25.37;61.73;96286.75;5023756;28;20050;-61
2021/07/19 05:45:38;;;;;;;15.40;13.73;;;;;;;24.93;60.48;96164.75;5022255;28;20049;-65
2021/07/19 05:48:07;;;;;;;17.70;12.93;;;;;;;25.68;59.63;96232.41;5023330;28;20066;-64
2021/07/19 05:50:34;;;;;;;15.13;13.55;;;;;;;26.10;58.52;96287.59;5023631;28;20444;-69
2021/07/19 05:53:01;;;;;;;16.63;13.52;;;;;;;26.39;57.43;96244.16;5024881;28;20072;-64
2021/07/19 05:55:29;;;;;;;15.38;13.45;;;;;;;26.98;56.66;96273.97;5021494;28;20065;-67
2021/07/19 05:57:59;;;;;;;19.70;13.93;;;;;;;27.24;55.75;96288.25;5024212;28;20045;-66
2021/07/19 06:00:27;;;;;;;24.33;13.32;;;;;;;27.25;54.66;96255.69;5023471;28;20457;-62
2021/07/19 06:02:54;;;;;;;15.98;14.25;;;;;;;27.09;54.69;96220.09;5022129;28;20057;-68
2021/07/19 06:05:21;;;;;;;20.30;13.63;;;;;;;25.89;54.86;96007.00;5021858;28;20049;-65
2021/07/19 06:07:48;;;;;;;16.02;13.50;;;;;;;27.90;54.68;96272.72;5023205;28;20053;-60
2021/07/19 06:10:15;;;;;;;14.70;13.30;;;;;;;27.75;55.63;96235.03;5020152;28;20462;-59
2021/07/19 06:12:42;;;;;;;17.85;13.60;;;;;;;28.05;54.33;96273.41;5018861;28;20045;-61
2021/07/19 06:15:10;;;;;;;15.88;13.82;;;;;;;27.38;55.73;96282.50;5015173;28;20061;-57
2021/07/19 06:17:38;;;;;;;18.83;12.70;;;;;;;27.54;54.10;96267.69;5023321;28;20057;-66
2021/07/19 06:20:19;;;;;;;14.38;12.50;;;;;;;28.13;53.05;96274.50;5022134;28;20045;-65
2021/07/19 06:22:47;;;;;;;15.10;11.15;;;;;;;27.21;50.01;96090.94;5023354;28;20057;-63
2021/07/19 06:25:15;;;;;;;17.88;12.23;;;;;;;28.76;49.72;96274.44;5010557;28;20064;-59
2021/07/19 06:27:43;;;;;;;16.83;11.65;;;;;;;28.59;48.26;96270.72;5024200;28;20166;-58
2021/07/19 06:30:12;;;;;;;14.15;11.60;;;;;;;28.13;48.77;96257.41;5023112;28;20396;-61
2021/07/19 06:32:41;;;;;;;13.43;10.82;;;;;;;28.05;50.50;96275.47;5021705;28;20056;-60
2021/07/19 06:35:09;;;;;;;16.17;11.02;;;;;;;28.44;49.90;96284.34;5021810;28;20079;-63
2021/07/19 06:37:35;;;;;;;12.93;10.90;;;;;;;27.90;50.15;96269.88;5022243;28;20439;-63
2021/07/19 06:40:04;;;;;;;16.88;11.45;;;;;;;27.95;50.28;96240.69;5023569;28;20056;-66
2021/07/19 06:42:31;;;;;;;18.42;12.55;;;;;;;28.39;51.08;96256.56;5024010;28;20181;-60
2021/07/19 06:45:01;;;;;;;20.77;10.25;;;;;;;28.72;49.49;96313.84;5022508;28;20084;-60
2021/07/19 06:47:28;;;;;;;16.70;10.93;;;;;;;28.48;48.99;96179.44;5021730;28;20443;-64
2021/07/19 06:49:57;;;;;;;13.15;10.85;;;;;;;29.10;48.55;96270.53;5021867;28;20053;-64
2021/07/19 06:52:25;;;;;;;17.40;11.18;;;;;;;28.72;47.83;96168.44;5023119;28;20076;-64
2021/07/19 06:54:52;;;;;;;17.48;10.68;;;;;;;29.06;47.32;96208.00;5023210;28;20076;-61
2021/07/19 06:57:19;;;;;;;11.48;10.27;;;;;;;29.31;46.87;96220.53;5020751;28;20069;-65
2021/07/19 06:59:46;;;;;;;13.77;10.65;;;;;;;29.53;47.32;96252.00;5023326;28;20057;-65
2021/07/19 07:02:13;;;;;;;16.23;11.00;;;;;;;29.20;47.11;96214.78;5023085;28;20056;-65
2021/07/19 07:04:43;;;;;;;12.32;9.88;;;;;;;29.59;46.79;96256.41;5022246;28;20449;-65
2021/07/19 07:07:10;;;;;;;12.02;10.77;;;;;;;27.54;46.60;95934.75;5021879;28;20055;-66
2021/07/19 07:09:37;;;;;;;13.65;10.35;;;;;;;29.85;47.15;96244.81;5021586;28;21122;-68
2021/07/19 07:12:18;;;;;;;13.77;12.10;;;;;;;29.85;46.63;96244.03;5022345;28;20417;-62
2021/07/19 07:14:45;;;;;;;18.65;12.77;;;;;;;29.11;47.59;96197.91;5023007;28;20049;-66
2021/07/19 07:17:11;;;;;;;19.52;12.38;;;;;;;29.31;46.84;96172.81;5022889;28;20053;-66
2021/07/19 07:19:38;;;;;;;20.10;13.32;;;;;;;29.86;46.30;96257.78;5021412;28;20584;-65
2021/07/19 07:22:05;;;;;;;13.05;10.43;;;;;;;29.99;45.60;96246.66;5022421;28;20523;-65
2021/07/19 07:24:34;;;;;;;13.20;9.98;;;;;;;30.13;44.74;96248.47;5022496;28;20500;-69
2021/07/19 07:27:02;;;;;;;12.93;10.52;;;;;;;30.10;45.17;96243.81;5022238;28;20057;-70
2021/07/19 07:29:28;;;;;;;14.65;11.27;;;;;;;30.22;45.22;96231.13;5037269;28;20520;-69
2021/07/19 07:31:55;;;;;;;19.23;11.90;;;;;;;30.08;45.38;96177.81;5021884;28;20067;-69
2021/07/19 07:34:22;;;;;;;14.98;11.52;;;;;;;30.26;44.48;96205.91;5020546;28;20053;-70
2021/07/19 07:36:53;;;;;;;16.73;11.55;;;;;;;30.02;45.14;96179.91;5022052;28;20056;-67
2021/07/19 07:39:20;;;;;;;15.20;11.32;;;;;;;30.39;44.87;96223.31;5022491;28;20240;-71
2021/07/19 07:41:46;;;;;;;20.88;15.48;;;;;;;30.19;44.53;96166.38;5022595;28;20397;-67
2021/07/19 07:44:13;;;;;;;16.85;11.25;;;;;;;30.68;44.13;96236.25;5022074;28;20053;-62
2021/07/19 07:46:42;;;;;;;14.70;10.77;;;;;;;30.47;43.80;96227.19;5021511;28;20526;-63
2021/07/19 07:49:09;;;;;;;12.93;10.15;;;;;;;29.58;44.37;96116.28;5022211;28;20136;-61
2021/07/19 07:51:36;;;;;;;15.20;10.40;;;;;;;30.58;44.43;96247.19;5022091;28;20136;-66
2021/07/19 07:54:03;;;;;;;13.02;10.23;;;;;;;29.98;45.05;96199.41;5022141;28;20053;-63
2021/07/19 07:56:29;;;;;;;17.25;10.77;;;;;;;30.38;44.04;96220.97;5022509;28;20058;-67
2021/07/19 07:58:56;;;;;;;11.35;9.88;;;;;;;30.50;43.92;96234.72;5021779;28;20516;-65
2021/07/19 08:01:23;;;;;;;12.05;9.80;;;;;;;30.04;44.83;96205.88;5021695;28;20049;-64
2021/07/19 08:03:51;;;;;;;11.80;9.73;;;;;;;30.00;45.04;96233.94;5024901;28;20111;-69
2021/07/19 08:06:17;;;;;;;13.15;10.80;;;;;;;30.21;45.31;96249.53;5025840;28;20050;-64
2021/07/19 08:08:44;;;;;;;12.48;10.50;;;;;;;29.41;46.17;96190.47;5026068;28;20440;-66
2021/07/19 08:11:11;;;;;;;13.52;10.80;;;;;;;29.73;46.22;96234.69;5025156;28;20120;-61
2021/07/19 08:13:38;;;;;;;11.48;9.73;;;;;;;28.93;45.49;96135.59;5024907;28;20041;-65
2021/07/19 08:16:05;;;;;;;14.32;10.13;;;;;;;30.09;45.33;96225.09;5039416;28;20459;-66
2021/07/19 08:18:32;;;;;;;16.75;10.68;;;;;;;30.08;44.30;96166.38;5024420;28;20107;-67
2021/07/19 08:20:59;;;;;;;17.95;13.80;;;;;;;30.75;44.02;96235.69;5024724;28;20122;-64
2021/07/19 08:23:26;;;;;;;14.07;10.65;;;;;;;31.01;43.40;96229.66;4931682;28;20458;-63
2021/07/19 08:25:52;;;;;;;17.17;11.93;;;;;;;31.22;43.03;96230.91;5012167;28;20139;-61
2021/07/19 08:28:24;;;;;;;16.48;11.50;;;;;;;31.50;42.12;96220.91;5025882;28;20060;-62
2021/07/19 08:30:50;;;;;;;10.00;9.00;;;;;;;30.81;41.95;96194.38;5025723;28;20055;-69
2021/07/19 08:33:17;;;;;;;12.75;10.70;;;;;;;30.41;42.61;96157.03;5024853;28;20045;-67
2021/07/19 08:35:45;;;;;;;13.68;9.77;;;;;;;30.91;42.87;96232.84;5039417;28;20343;-63
2021/07/19 08:38:13;;;;;;;10.52;8.98;;;;;;;30.16;43.77;96223.81;5025319;28;20163;-63
2021/07/19 08:40:43;;;;;;;16.92;10.70;;;;;;;30.07;44.09;96192.63;5024892;28;20139;-65
2021/07/19 08:43:31;;;;;;;10.88;9.30;;;;;;;30.82;42.33;96229.47;5006114;28;20178;-61
2021/07/19 08:45:59;;;;;;;18.27;12.35;;;;;;;30.75;43.10;96230.75;5023465;28;20056;-66
2021/07/19 08:48:26;;;;;;;14.50;10.35;;;;;;;30.91;42.32;96229.19;5024545;28;20063;-72
2021/07/19 08:50:53;;;;;;;13.93;10.60;;;;;;;30.84;43.44;96219.06;5021007;28;20481;-69
2021/07/19 08:53:20;;;;;;;14.63;11.68;;;;;;;31.03;42.54;96178.44;5022511;28;20046;-64
2021/07/19 08:55:51;;;;;;;10.57;9.55;;;;;;;31.29;41.89;96210.28;5023508;28;20088;-63
2021/07/19 08:58:18;;;;;;;16.88;11.52;;;;;;;31.29;42.49;96193.13;5023440;28;20053;-68
2021/07/19 09:00:44;;;;;;;14.70;11.35;;;;;;;31.68;41.69;96214.53;5023731;28;20068;-60
2021/07/19 09:03:11;;;;;;;16.33;10.75;;;;;;;32.05;41.51;96208.28;5025091;28;20128;-62
2021/07/19 09:05:39;;;;;;;15.85;11.15;;;;;;;31.65;40.98;96100.22;5025358;28;20144;-65
2021/07/19 09:08:06;;;;;;;13.15;9.75;;;;;;;32.34;39.19;96196.06;5020580;28;20065;-64
2021/07/19 09:10:34;;;;;;;11.77;8.98;;;;;;;31.98;39.72;96186.72;5023922;28;20058;-67
2021/07/19 09:13:01;;;;;;;13.13;10.07;;;;;;;32.24;39.27;96174.78;5023740;28;20327;-63
2021/07/19 09:15:38;;;;;;;11.55;10.45;;;;;;;31.31;40.91;96187.69;5023961;28;20049;-66
2021/07/19 09:18:06;;;;;;;19.27;14.80;;;;;;;31.13;42.43;96200.47;5024839;28;20186;-69
2021/07/19 09:20:35;;;;;;;11.90;9.75;;;;;;;31.94;41.07;96196.91;5024382;28;20084;-70
2021/07/19 09:23:03;;;;;;;11.13;10.02;;;;;;;31.70;40.88;96196.81;5053270;28;20069;-60
2021/07/19 09:25:30;;;;;;;14.48;10.80;;;;;;;31.09;41.07;96113.34;5024756;28;20054;-67
2021/07/19 09:28:04;;;;;;;14.77;9.13;;;;;;;31.62;38.34;96095.56;5024526;28;20053;-61
2021/07/19 09:30:33;;;;;;;15.27;9.45;;;;;;;30.65;38.84;95969.25;5024575;28;20424;-67
2021/07/19 09:33:05;;;;;;;14.45;10.77;;;;;;;32.42;38.80;96190.53;5024326;28;20146;-62
2021/07/19 09:35:34;;;;;;;17.42;11.32;;;;;;;32.61;37.37;96172.09;5017660;28;20421;-58
2021/07/19 09:38:03;;;;;;;15.93;9.02;;;;;;;32.73;35.41;96119.00;5014912;28;20567;-69
2021/07/19 09:40:32;;;;;;;10.00;8.02;;;;;;;33.47;35.44;96182.28;5024229;28;20053;-66
2021/07/19 09:43:00;;;;;;;14.45;9.00;;;;;;;33.84;35.28;96186.44;5055932;28;20534;-59
2021/07/19 09:45:31;;;;;;;22.23;9.35;;;;;;;33.82;35.01;96186.97;5024303;28;20819;-61
2021/07/19 09:48:08;;;;;;;12.98;8.35;;;;;;;33.81;34.28;96158.78;5023521;28;20061;-61
2021/07/19 09:50:41;;;;;;;10.48;8.63;;;;;;;33.91;34.82;96180.09;5023600;28;20061;-64
2021/07/19 09:53:08;;;;;;;9.60;8.68;;;;;;;33.93;34.76;96178.22;5024689;28;20144;-63
2021/07/19 09:55:36;;;;;;;14.88;9.13;;;;;;;34.04;35.49;96183.00;5018972;28;20052;-64
2021/07/19 09:58:04;;;;;;;15.25;8.75;;;;;;;34.18;35.16;96187.44;5015797;28;20504;-61
2021/07/19 10:00:32;;;;;;;14.68;9.02;;;;;;;34.26;34.72;96171.09;5025002;28;20076;-60
2021/07/19 10:03:14;;;;;;;18.05;10.02;;;;;;;34.04;35.16;96177.25;5022658;28;20531;-66
2021/07/19 10:05:41;;;;;;;13.48;9.40;;;;;;;34.53;34.78;96164.91;5024625;28;20045;-61
2021/07/19 10:08:23;;;;;;;13.63;9.80;;;;;;;34.76;34.08;96163.13;5034930;28;20440;-61
2021/07/19 10:10:50;;;;;;;22.27;10.98;;;;;;;34.64;34.23;96152.38;5024321;28;20163;-59
2021/07/19 10:13:17;;;;;;;11.40;8.73;;;;;;;35.18;33.57;96164.13;5022742;28;20057;-65
2021/07/19 10:15:44;;;;;;;14.43;9.57;;;;;;;34.82;33.91;96108.34;5023327;28;20462;-61
2021/07/19 10:18:14;;;;;;;12.70;10.30;;;;;;;35.01;34.30;96135.69;5022535;28;20445;-67
2021/07/19 10:20:41;;;;;;;15.05;8.98;;;;;;;35.36;34.11;96180.56;5023663;28;20049;-61
2021/07/19 10:23:11;;;;;;;19.08;10.93;;;;;;;35.31;34.13;96131.66;5023275;28;20048;-60
2021/07/19 10:25:38;;;;;;;15.85;10.13;;;;;;;35.32;33.66;96168.53;5024679;28;20061;-60
2021/07/19 10:28:06;;;;;;;10.52;9.52;;;;;;;35.40;33.72;96152.16;5024033;28;20063;-62
2021/07/19 10:30:33;;;;;;;14.27;9.30;;;;;;;35.28;33.53;96168.13;5023685;28;20505;-64
2021/07/19 10:33:02;;;;;;;16.27;10.07;;;;;;;35.61;34.27;96167.41;5022641;28;20069;-65
2021/07/19 10:35:29;;;;;;;16.85;11.23;;;;;;;34.54;34.08;95949.88;5023804;28;20059;-66
2021/07/19 10:38:01;;;;;;;16.65;11.15;;;;;;;35.28;34.85;96162.38;5023583;28;20061;-64
2021/07/19 10:40:31;;;;;;;16.13;10.07;;;;;;;34.73;36.31;96169.25;5023993;28;20423;-63
2021/07/19 10:43:14;;;;;;;13.93;10.55;;;;;;;34.20;36.22;96127.31;5024247;28;20057;-65
2021/07/19 10:45:52;;;;;;;13.95;11.55;;;;;;;34.65;36.82;96171.97;5022506;28;20429;-66
2021/07/19 10:48:28;;;;;;;13.13;10.35;;;;;;;34.61;36.43;96151.41;5023552;28;20145;-65
2021/07/19 10:50:58;;;;;;;14.38;10.25;;;;;;;34.13;36.61;96076.97;5021443;28;20057;-65
2021/07/19 10:53:31;;;;;;;15.18;9.95;;;;;;;35.01;35.56;96155.09;5043219;28;20055;-65
2021/07/19 10:56:07;;;;;;;19.08;9.75;;;;;;;35.33;35.20;96158.56;5043563;28;20049;-65
2021/07/19 10:58:49;;;;;;;10.38;9.35;;;;;;;35.23;33.34;96122.94;5043082;28;20056;-65
2021/07/19 11:01:19;;;;;;;11.88;8.30;;;;;;;35.69;31.45;96150.97;5043466;28;20061;-65
2021/07/19 11:03:46;;;;;;;12.60;8.65;;;;;;;36.12;31.62;96142.56;5042163;28;20548;-65
2021/07/19 11:06:12;;;;;;;15.32;9.13;;;;;;;35.92;30.79;96134.72;5041698;28;20518;-65
2021/07/19 11:08:50;;;;;;;11.15;9.98;;;;;;;36.24;30.74;96138.09;5041372;28;20059;-65
2021/07/19 11:11:28;;;;;;;9.77;8.88;;;;;;;36.36;31.17;96144.34;5043210;28;20048;-65
2021/07/19 11:14:04;;;;;;;14.15;8.88;;;;;;;36.46;30.86;96102.91;5057796;28;20064;-64
2021/07/19 11:16:46;;;;;;;18.60;12.10;;;;;;;36.38;30.84;96104.94;5031742;28;20679;-65
2021/07/19 11:19:14;;;;;;;16.67;11.52;;;;;;;36.24;31.81;96126.56;5022972;28;20053;-65
2021/07/19 11:21:43;;;;;;;11.98;8.80;;;;;;;36.98;31.01;96147.91;5021827;28;20054;-63
2021/07/19 11:24:13;;;;;;;10.70;9.23;;;;;;;36.95;30.33;96079.72;5023797;28;20467;-65
2021/07/19 11:26:48;;;;;;;9.82;8.85;;;;;;;37.45;29.41;96145.47;5023342;28;20045;-66
2021/07/19 11:29:34;;;;;;;9.65;8.40;;;;;;;37.73;29.30;96138.84;5022883;28;20053;-63